Time;durP1;ratioP1;P1;durP2;ratioP2;P2;SDS_P1;SDS_P2;PMS_P1;PMS_P2;Temp;Humidity;BMP_temperature;BMP_pressure;BME280_temperature;BME280_humidity;BME280_pressure;Samples;Min_cycle;Max_cycle;Signal;HPM_P1;HPM_P2
2022/09/28 00:00:06;;;;;;;;;;;8.60;99.90;;;;;;5030147;28;19937;-76
2022/09/28 00:02:40;;;;;;;;;;;8.50;99.90;;;;;;5032632;28;20407;-76
2022/09/28 00:05:12;;;;;;;;;;;8.50;99.90;;;;;;5019732;28;19948;-78
2022/09/28 00:07:38;;;;;;;;;;;8.60;99.90;;;;;;5016534;28;19988;-76
2022/09/28 00:10:11;;;;;;;;;;;8.60;99.90;;;;;;5017463;28;19925;-76
2022/09/28 00:12:42;;;;;;;;;;;8.60;99.90;;;;;;5017484;28;20335;-76
2022/09/28 00:15:09;;;;;;;;;;;8.60;99.90;;;;;;5036548;28;19929;-76
2022/09/28 00:17:36;;;;;;;;;;;8.60;99.90;;;;;;5049261;28;20323;-77
2022/09/28 00:20:04;;;;;;;;;;;8.60;99.90;;;;;;4999233;28;20395;-76
2022/09/28 00:22:35;;;;;;;;;;;8.60;99.90;;;;;;5017155;28;20003;-75
2022/09/28 00:25:03;;;;;;;;;;;8.70;99.90;;;;;;5017121;28;19972;-76
2022/09/28 00:27:34;;;;;;;;;;;8.60;99.90;;;;;;5030735;28;19929;-76
2022/09/28 00:30:06;;;;;;;;;;;8.70;99.90;;;;;;5012788;28;20513;-75
2022/09/28 00:32:38;;;;;;;;;;;8.70;99.90;;;;;;5040742;28;19929;-76
2022/09/28 00:35:05;;;;;;;;;;;8.70;99.90;;;;;;5046515;28;19983;-74
2022/09/28 00:37:32;;;;;;;;;;;8.70;99.90;;;;;;5019770;28;20035;-76
2022/09/28 00:39:58;;;;;;;;;;;8.70;99.90;;;;;;5047506;28;19929;-76
2022/09/28 00:42:30;;;;;;;;;;;8.70;99.90;;;;;;5031833;28;19929;-76
2022/09/28 00:45:02;;;;;;;;;;;8.70;99.90;;;;;;5031335;28;19957;-76
2022/09/28 00:47:49;;;;;;;;;;;8.70;99.90;;;;;;5029240;28;20363;-76
2022/09/28 00:50:32;;;;;;;;;;;8.70;99.90;;;;;;5021573;28;20020;-75
2022/09/28 00:53:12;;;;;;;;;;;8.70;99.90;;;;;;5036498;28;19926;-75
2022/09/28 00:55:49;;;;;;;;;;;8.80;99.90;;;;;;5010652;28;19933;-75
2022/09/28 00:58:18;;;;;;;;;;;8.80;99.90;;;;;;5029721;28;20462;-75
2022/09/28 01:00:51;;;;;;;;;;;8.80;99.90;;;;;;5021257;28;19925;-77
2022/09/28 01:03:18;;;;;;;;;;;8.80;99.90;;;;;;5047621;28;19929;-75
2022/09/28 01:05:51;;;;;;;;;;;8.80;99.90;;;;;;5040799;28;19925;-76
2022/09/28 01:08:26;;;;;;;;;;;8.90;99.90;;;;;;5028756;28;20383;-76
2022/09/28 01:10:53;;;;;;;;;;;8.80;99.90;;;;;;5044090;28;19925;-74
2022/09/28 01:13:25;;;;;;;;;;;8.80;99.90;;;;;;5028433;28;19929;-75
2022/09/28 01:15:57;;;;;;;;;;;8.80;99.90;;;;;;5030864;28;19947;-74
2022/09/28 01:18:29;;;;;;;;;;;8.80;99.90;;;;;;5029547;28;19925;-74
2022/09/28 01:21:09;;;;;;;;;;;8.90;99.90;;;;;;5014492;28;19925;-75
2022/09/28 01:23:47;;;;;;;;;;;8.80;99.90;;;;;;5025847;28;19925;-75
2022/09/28 01:26:33;;;;;;;;;;;8.80;99.90;;;;;;5014277;28;19929;-75
2022/09/28 01:29:10;;;;;;;;;;;8.80;99.90;;;;;;5027194;28;19980;-75
2022/09/28 01:31:40;;;;;;;;;;;8.80;99.90;;;;;;5014114;28;20008;-76
2022/09/28 01:34:15;;;;;;;;;;;8.80;99.90;;;;;;5037594;28;19933;-76
2022/09/28 01:36:46;;;;;;;;;;;8.80;99.90;;;;;;5026250;28;19929;-76
2022/09/28 01:39:22;;;;;;;;;;;8.80;99.90;;;;;;5036757;28;20398;-75
2022/09/28 01:41:51;;;;;;;;;;;8.80;99.90;;;;;;5028143;28;19976;-75
2022/09/28 01:44:20;;;;;;;;;;;8.90;99.90;;;;;;5030020;28;20391;-76
2022/09/28 01:46:48;;;;;;;;;;;8.90;99.90;;;;;;5028948;28;19929;-76
2022/09/28 01:49:22;;;;;;;;;;;8.90;99.90;;;;;;5027265;28;19929;-74
2022/09/28 01:51:58;;;;;;;;;;;8.80;99.90;;;;;;4994357;28;19929;-76
2022/09/28 01:54:30;;;;;;;;;;;8.80;99.90;;;;;;5045662;28;20032;-75
2022/09/28 01:57:05;;;;;;;;;;;8.80;99.90;;;;;;5016641;28;19929;-76
2022/09/28 01:59:39;;;;;;;;;;;8.80;99.90;;;;;;5041402;28;20339;-77
2022/09/28 02:02:13;;;;;;;;;;;8.80;99.90;;;;;;5016050;28;19926;-76
2022/09/28 02:04:48;;;;;;;;;;;8.80;99.90;;;;;;5027422;28;19972;-75
2022/09/28 02:07:31;;;;;;;;;;;8.80;99.90;;;;;;5012042;28;19929;-76
2022/09/28 02:09:59;;;;;;;;;;;8.70;99.90;;;;;;5002660;28;20543;-75
2022/09/28 02:12:34;;;;;;;;;;;8.80;99.90;;;;;;5022938;28;19935;-75
2022/09/28 02:15:09;;;;;;;;;;;8.70;99.90;;;;;;5026835;28;19979;-76
2022/09/28 02:17:43;;;;;;;;;;;8.70;99.90;;;;;;5028281;28;19968;-76
2022/09/28 02:20:15;;;;;;;;;;;8.70;99.90;;;;;;5028500;28;20351;-76
2022/09/28 02:22:48;;;;;;;;;;;8.70;99.90;;;;;;5040917;28;19936;-75
2022/09/28 02:25:38;;;;;;;;;;;8.60;99.90;;;;;;5018894;28;19925;-75
2022/09/28 02:28:09;;;;;;;;;;;8.60;99.90;;;;;;5028350;28;19929;-75
2022/09/28 02:30:42;;;;;;;;;;;8.60;99.90;;;;;;5003320;28;20705;-76
2022/09/28 02:33:16;;;;;;;;;;;8.60;99.90;;;;;;5029519;28;19932;-77
2022/09/28 02:35:48;;;;;;;;;;;8.60;99.90;;;;;;5026486;28;20020;-75
2022/09/28 02:38:22;;;;;;;;;;;8.70;99.90;;;;;;5016014;28;20012;-77
2022/09/28 02:41:13;;;;;;;;;;;8.60;99.90;;;;;;5014519;28;19964;-75
2022/09/28 02:43:50;;;;;;;;;;;8.70;99.90;;;;;;4992479;28;20671;-75
2022/09/28 02:46:22;;;;;;;;;;;8.70;99.90;;;;;;5010973;28;19929;-75
2022/09/28 02:48:59;;;;;;;;;;;8.70;99.90;;;;;;5028453;28;19932;-75
2022/09/28 02:51:31;;;;;;;;;;;8.70;99.90;;;;;;5030152;28;19929;-76
2022/09/28 02:54:07;;;;;;;;;;;8.80;99.90;;;;;;5046114;28;19940;-76
2022/09/28 02:56:54;;;;;;;;;;;8.80;99.90;;;;;;5029972;28;19925;-77
2022/09/28 02:59:26;;;;;;;;;;;8.80;99.90;;;;;;5012331;28;19929;-75
2022/09/28 03:02:10;;;;;;;;;;;8.90;99.90;;;;;;5012977;28;19932;-76
2022/09/28 03:04:43;;;;;;;;;;;8.90;99.90;;;;;;5006655;28;19936;-76
2022/09/28 03:07:28;;;;;;;;;;;9.00;99.90;;;;;;5045608;28;19959;-76
2022/09/28 03:10:04;;;;;;;;;;;9.00;99.90;;;;;;5041422;28;19972;-76
2022/09/28 03:12:37;;;;;;;;;;;9.00;99.90;;;;;;5027105;28;19925;-76
2022/09/28 03:15:13;;;;;;;;;;;9.00;99.90;;;;;;5012257;28;19932;-75
2022/09/28 03:17:41;;;;;;;;;;;9.00;99.90;;;;;;5011373;28;20659;-75
2022/09/28 03:20:08;;;;;;;;;;;9.00;99.90;;;;;;4993465;28;19933;-75
2022/09/28 03:22:35;;;;;;;;;;;9.00;99.90;;;;;;5033215;28;19948;-75
2022/09/28 03:25:07;;;;;;;;;;;9.00;99.90;;;;;;5033385;28;19932;-75
2022/09/28 03:27:36;;;;;;;;;;;9.00;99.90;;;;;;5016825;28;20303;-75
2022/09/28 03:30:04;;;;;;;;;;;9.00;99.90;;;;;;5048948;28;19925;-76
2022/09/28 03:32:36;;;;;;;;;;;9.00;99.90;;;;;;5031243;28;20529;-75
2022/09/28 03:35:03;;;;;;;;;;;9.00;99.90;;;;;;5049886;28;19937;-75
2022/09/28 03:37:36;;;;;;;;;;;9.00;99.90;;;;;;5046070;28;20012;-74
2022/09/28 03:40:04;;;;;;;;;;;9.10;99.90;;;;;;5047121;28;20347;-75
2022/09/28 03:42:36;;;;;;;;;;;9.10;99.90;;;;;;5014890;28;19941;-76
2022/09/28 03:45:08;;;;;;;;;;;9.00;99.90;;;;;;5001906;28;19925;-76
2022/09/28 03:47:35;;;;;;;;;;;9.10;99.90;;;;;;5030159;28;19925;-75
2022/09/28 03:50:07;;;;;;;;;;;9.10;99.90;;;;;;5031878;28;19937;-77
2022/09/28 03:52:38;;;;;;;;;;;9.10;99.90;;;;;;5029799;28;19925;-74
2022/09/28 03:55:05;;;;;;;;;;;9.10;99.90;;;;;;5032793;28;19928;-77
2022/09/28 03:57:37;;;;;;;;;;;9.10;99.90;;;;;;5023567;28;20035;-76
2022/09/28 04:00:09;;;;;;;;;;;9.10;99.90;;;;;;5032182;28;20019;-75
2022/09/28 04:02:40;;;;;;;;;;;9.10;99.90;;;;;;5033856;28;20011;-75
2022/09/28 04:05:12;;;;;;;;;;;9.10;99.90;;;;;;5015389;28;19926;-77
2022/09/28 04:07:39;;;;;;;;;;;9.20;99.90;;;;;;5039847;28;20359;-74
2022/09/28 04:10:10;;;;;;;;;;;9.10;99.90;;;;;;5029580;28;20303;-75
2022/09/28 04:12:42;;;;;;;;;;;9.20;99.90;;;;;;5046313;28;20382;-74
2022/09/28 04:15:13;;;;;;;;;;;9.10;99.90;;;;;;5028547;28;19992;-75
2022/09/28 04:17:41;;;;;;;;;;;9.00;99.90;;;;;;5012395;28;19933;-74
2022/09/28 04:20:26;;;;;;;;;;;9.00;99.90;;;;;;5029440;28;20019;-76
2022/09/28 04:23:01;;;;;;;;;;;9.00;99.90;;;;;;5013657;28;20722;-73
2022/09/28 04:25:33;;;;;;;;;;;8.90;99.90;;;;;;5002327;28;20383;-75
2022/09/28 04:30:46;;;;;;;;;;;8.90;99.90;;;;;;5046159;28;19975;-76
2022/09/28 04:33:18;;;;;;;;;;;8.80;99.90;;;;;;5027278;28;20394;-75
2022/09/28 04:35:44;;;;;;;;;;;8.80;99.90;;;;;;5040788;28;19936;-73
2022/09/28 04:38:16;;;;;;;;;;;8.80;99.90;;;;;;5029576;28;19979;-72
2022/09/28 04:40:48;;;;;;;;;;;8.70;99.90;;;;;;5012974;28;19964;-75
2022/09/28 04:43:20;;;;;;;;;;;8.60;99.90;;;;;;5043752;28;19925;-76
2022/09/28 04:45:51;;;;;;;;;;;8.70;99.90;;;;;;5012140;28;19929;-76
2022/09/28 04:48:23;;;;;;;;;;;8.60;99.90;;;;;;5026922;28;19925;-75
2022/09/28 04:51:09;;;;;;;;;;;8.60;99.90;;;;;;5042622;28;20036;-75
2022/09/28 04:53:41;;;;;;;;;;;8.60;99.90;;;;;;5028142;28;19936;-74
2022/09/28 04:56:13;;;;;;;;;;;8.60;99.90;;;;;;5043560;28;19925;-75
2022/09/28 04:58:40;;;;;;;;;;;8.60;99.90;;;;;;5040837;28;20371;-74
2022/09/28 05:01:14;;;;;;;;;;;8.60;99.90;;;;;;5027724;28;19932;-75
2022/09/28 05:03:57;;;;;;;;;;;8.60;99.90;;;;;;5029569;28;19947;-74
2022/09/28 05:06:30;;;;;;;;;;;8.60;99.90;;;;;;5014665;28;19972;-75
2022/09/28 05:09:08;;;;;;;;;;;8.60;99.90;;;;;;5023536;28;19935;-75
2022/09/28 05:11:40;;;;;;;;;;;8.60;99.90;;;;;;5009945;28;20031;-75
2022/09/28 05:14:13;;;;;;;;;;;8.60;99.90;;;;;;5009322;28;20527;-75
2022/09/28 05:16:44;;;;;;;;;;;8.60;99.90;;;;;;5045042;28;19935;-74
2022/09/28 05:19:19;;;;;;;;;;;8.60;99.90;;;;;;5020866;28;19932;-77
2022/09/28 05:21:45;;;;;;;;;;;8.60;99.90;;;;;;5027526;28;20040;-74
2022/09/28 05:24:17;;;;;;;;;;;8.60;99.90;;;;;;5010282;28;19925;-75
2022/09/28 05:26:50;;;;;;;;;;;8.60;99.90;;;;;;5026943;28;19929;-74
2022/09/28 05:29:22;;;;;;;;;;;8.60;99.90;;;;;;5007980;28;19930;-74
2022/09/28 05:32:12;;;;;;;;;;;8.60;99.90;;;;;;5021116;28;19944;-74
2022/09/28 05:34:59;;;;;;;;;;;8.60;99.90;;;;;;5007734;28;19956;-75
2022/09/28 05:37:33;;;;;;;;;;;8.60;99.90;;;;;;5007005;28;19964;-73
2022/09/28 05:40:05;;;;;;;;;;;8.60;99.90;;;;;;5024823;28;19953;-74
2022/09/28 05:42:37;;;;;;;;;;;8.70;99.90;;;;;;5025189;28;19960;-76
2022/09/28 05:45:05;;;;;;;;;;;8.60;99.90;;;;;;5027647;28;19925;-75
2022/09/28 05:47:36;;;;;;;;;;;8.60;99.90;;;;;;5008264;28;19961;-76
2022/09/28 05:50:10;;;;;;;;;;;8.70;99.90;;;;;;5022056;28;20403;-76
2022/09/28 05:52:37;;;;;;;;;;;8.60;99.90;;;;;;5004193;28;20450;-77
2022/09/28 05:55:05;;;;;;;;;;;8.60;99.90;;;;;;4995126;28;19937;-76
2022/09/28 05:57:37;;;;;;;;;;;8.70;99.90;;;;;;5010185;28;19933;-72
2022/09/28 06:00:05;;;;;;;;;;;8.70;99.90;;;;;;5009910;28;19935;-77
2022/09/28 06:02:39;;;;;;;;;;;8.70;99.90;;;;;;5018486;28;20407;-76
2022/09/28 06:05:12;;;;;;;;;;;8.70;99.90;;;;;;5008994;28;19925;-75
2022/09/28 06:07:39;;;;;;;;;;;8.70;99.90;;;;;;5023482;28;20063;-74
2022/09/28 06:10:11;;;;;;;;;;;8.70;99.90;;;;;;5021879;28;19940;-75
2022/09/28 06:12:44;;;;;;;;;;;8.80;99.90;;;;;;5040870;28;19969;-76
2022/09/28 06:15:14;;;;;;;;;;;8.80;99.90;;;;;;5039742;28;20012;-76
2022/09/28 06:17:45;;;;;;;;;;;8.80;99.90;;;;;;5018097;28;19929;-72
2022/09/28 06:20:43;;;;;;;;;;;8.80;99.90;;;;;;5026758;28;19933;-77
2022/09/28 06:23:14;;;;;;;;;;;8.80;99.90;;;;;;5025494;28;19925;-76
2022/09/28 06:25:41;;;;;;;;;;;8.90;99.90;;;;;;5010186;28;20530;-77
2022/09/28 06:28:14;;;;;;;;;;;8.90;99.90;;;;;;5022304;28;19936;-75
2022/09/28 06:30:46;;;;;;;;;;;8.90;99.90;;;;;;5024908;28;19925;-74
2022/09/28 06:33:16;;;;;;;;;;;8.90;99.90;;;;;;5008578;28;19932;-76
2022/09/28 06:35:42;;;;;;;;;;;8.80;99.90;;;;;;5022645;28;19933;-75
2022/09/28 06:38:14;;;;;;;;;;;8.80;99.90;;;;;;5007253;28;19929;-76
2022/09/28 06:40:47;;;;;;;;;;;8.90;99.90;;;;;;5007071;28;19936;-73
2022/09/28 06:43:18;;;;;;;;;;;8.80;99.90;;;;;;5018956;28;19929;-76
2022/09/28 06:46:16;;;;;;;;;;;8.90;99.90;;;;;;4994327;28;19925;-75
2022/09/28 06:49:08;;;;;;;;;;;8.90;99.90;;;;;;5019629;28;19936;-75
2022/09/28 06:52:10;;;;;;;;;;;8.90;99.90;;;;;;4967050;28;20393;-72
2022/09/28 06:55:11;;;;;;;;;;;9.00;99.90;;;;;;5014254;28;20027;-75
2022/09/28 06:57:46;;;;;;;;;;;8.90;99.90;;;;;;5011065;28;20013;-74
2022/09/28 07:00:17;;;;;;;;;;;9.00;99.90;;;;;;5026654;28;19933;-75
2022/09/28 07:02:49;;;;;;;;;;;9.00;99.90;;;;;;5027883;28;19956;-75
2022/09/28 07:05:53;;;;;;;;;;;8.90;99.90;;;;;;4992941;28;19925;-75
2022/09/28 07:08:39;;;;;;;;;;;8.90;99.90;;;;;;5037009;28;20023;-76
2022/09/28 07:11:40;;;;;;;;;;;8.90;99.90;;;;;;5015171;28;19925;-75
2022/09/28 07:14:23;;;;;;;;;;;8.90;99.90;;;;;;5029389;28;20387;-75
2022/09/28 07:16:50;;;;;;;;;;;8.90;99.90;;;;;;5027941;28;19929;-76
2022/09/28 07:19:22;;;;;;;;;;;9.00;99.90;;;;;;5043730;28;19929;-75
2022/09/28 07:21:53;;;;;;;;;;;8.90;99.90;;;;;;5026944;28;19929;-74
2022/09/28 07:24:25;;;;;;;;;;;8.90;99.90;;;;;;5029185;28;20521;-74
2022/09/28 07:26:54;;;;;;;;;;;8.90;99.90;;;;;;4998539;28;20083;-74
2022/09/28 07:29:33;;;;;;;;;;;8.90;99.90;;;;;;5025995;28;19935;-73
2022/09/28 07:32:20;;;;;;;;;;;8.90;99.90;;;;;;5026541;28;20020;-74
2022/09/28 07:34:58;;;;;;;;;;;8.90;99.90;;;;;;5040008;28;20411;-74
2022/09/28 07:37:43;;;;;;;;;;;8.90;99.90;;;;;;5044744;28;20007;-73
2022/09/28 07:43:04;;;;;;;;;;;8.90;99.90;;;;;;5015299;28;20487;-75
2022/09/28 07:45:34;;;;;;;;;;;8.80;99.90;;;;;;5013531;28;20288;-74
2022/09/28 07:48:01;;;;;;;;;;;8.60;99.90;;;;;;5027487;28;19929;-74
2022/09/28 07:50:58;;;;;;;;;;;8.50;99.90;;;;;;5027469;28;19932;-74
2022/09/28 07:53:55;;;;;;;;;;;8.40;99.90;;;;;;5023853;28;19925;-73
2022/09/28 07:56:39;;;;;;;;;;;8.40;99.90;;;;;;5043383;28;19929;-74
2022/09/28 07:59:17;;;;;;;;;;;8.40;99.90;;;;;;5035918;28;19976;-76
2022/09/28 08:02:19;;;;;;;;;;;8.40;99.90;;;;;;5013699;28;20011;-74
2022/09/28 08:04:50;;;;;;;;;;;8.40;99.90;;;;;;5014981;28;19939;-75
2022/09/28 08:07:24;;;;;;;;;;;8.40;99.90;;;;;;5036637;28;20003;-74
2022/09/28 08:10:00;;;;;;;;;;;8.40;99.90;;;;;;5021441;28;19925;-74
2022/09/28 08:12:46;;;;;;;;;;;8.40;99.90;;;;;;5027849;28;20426;-74
2022/09/28 08:15:37;;;;;;;;;;;8.40;99.90;;;;;;5028104;28;19929;-74
2022/09/28 08:18:41;;;;;;;;;;;8.40;99.90;;;;;;5001862;28;19929;-73
2022/09/28 08:23:59;;;;;;;;;;;8.40;99.90;;;;;;5027060;28;19933;-75
2022/09/28 08:26:32;;;;;;;;;;;8.50;99.90;;;;;;5030212;28;20350;-73
2022/09/28 08:29:04;;;;;;;;;;;8.50;99.90;;;;;;5043824;28;19933;-74
2022/09/28 08:31:51;;;;;;;;;;;8.60;99.90;;;;;;5011639;28;19928;-75
2022/09/28 08:34:32;;;;;;;;;;;8.60;99.90;;;;;;5027752;28;19925;-77
2022/09/28 08:37:07;;;;;;;;;;;8.50;99.90;;;;;;5009594;28;19972;-74
2022/09/28 08:39:59;;;;;;;;;;;8.50;99.90;;;;;;5031888;28;19960;-75
2022/09/28 08:42:45;;;;;;;;;;;8.50;99.90;;;;;;5029504;28;19948;-73
2022/09/28 08:45:47;;;;;;;;;;;8.60;99.90;;;;;;5027321;28;19932;-74
2022/09/28 08:48:43;;;;;;;;;;;8.60;99.90;;;;;;5012903;28;19932;-74
2022/09/28 08:51:21;;;;;;;;;;;8.60;99.90;;;;;;5028606;28;19975;-73
2022/09/28 08:54:25;;;;;;;;;;;8.60;99.90;;;;;;5016027;28;19925;-74
2022/09/28 08:57:06;;;;;;;;;;;8.60;99.90;;;;;;5032133;28;20348;-74
2022/09/28 08:59:54;;;;;;;;;;;8.70;99.90;;;;;;5048694;28;19932;-73
2022/09/28 09:02:33;;;;;;;;;;;8.80;99.90;;;;;;5012013;28;19925;-74
2022/09/28 09:05:18;;;;;;;;;;;8.90;99.90;;;;;;5028012;28;19925;-76
2022/09/28 09:08:12;;;;;;;;;;;9.00;99.90;;;;;;5032178;28;19925;-75
2022/09/28 09:11:16;;;;;;;;;;;9.10;99.90;;;;;;5032992;28;20052;-75
2022/09/28 09:14:14;;;;;;;;;;;9.10;99.90;;;;;;4976980;28;19925;-73
2022/09/28 09:16:54;;;;;;;;;;;9.10;99.90;;;;;;5027549;28;20462;-75
2022/09/28 09:19:57;;;;;;;;;;;9.20;99.90;;;;;;5020958;28;20403;-74
2022/09/28 09:22:54;;;;;;;;;;;9.30;99.90;;;;;;5047797;28;19941;-73
2022/09/28 09:25:41;;;;;;;;;;;9.30;99.90;;;;;;5019067;28;19932;-74
2022/09/28 09:28:30;;;;;;;;;;;9.40;99.90;;;;;;5020816;28;19926;-74
2022/09/28 09:31:13;;;;;;;;;;;9.60;99.90;;;;;;5024429;28;19925;-74
2022/09/28 09:34:05;;;;;;;;;;;9.60;99.90;;;;;;5031881;28;19925;-73
2022/09/28 09:36:48;;;;;;;;;;;9.60;99.90;;;;;;5031575;28;19948;-73
2022/09/28 09:39:41;;;;;;;;;;;9.60;99.90;;;;;;5011050;28;19925;-73
2022/09/28 09:42:59;;;;;;;;;;;9.50;99.90;;;;;;5032460;28;19996;-73
2022/09/28 09:45:41;;;;;;;;;;;9.40;99.90;;;;;;5042135;28;20304;-76
2022/09/28 09:48:38;;;;;;;;;;;9.50;99.90;;;;;;5040896;28;19929;-77
2022/09/28 09:51:15;;;;;;;;;;;9.60;99.90;;;;;;5010506;28;19978;-75
2022/09/28 09:54:10;;;;;;;;;;;9.60;99.90;;;;;;5010894;28;19933;-75
2022/09/28 09:56:39;;;;;;;;;;;9.60;99.90;;;;;;5026959;28;19925;-77
2022/09/28 09:59:17;;;;;;;;;;;9.80;99.90;;;;;;5038016;28;19968;-76
2022/09/28 10:02:11;;;;;;;;;;;9.80;99.90;;;;;;5027108;28;19925;-76
2022/09/28 10:04:47;;;;;;;;;;;9.80;99.90;;;;;;5005243;28;20339;-75
2022/09/28 10:07:43;;;;;;;;;;;9.80;99.90;;;;;;5018659;28;20457;-76
2022/09/28 10:10:19;;;;;;;;;;;9.70;99.90;;;;;;5037346;28;19933;-75
2022/09/28 10:12:49;;;;;;;;;;;9.70;99.90;;;;;;5017785;28;19984;-74
2022/09/28 10:15:30;;;;;;;;;;;9.60;99.90;;;;;;5015862;28;19925;-75
2022/09/28 10:18:39;;;;;;;;;;;9.50;99.90;;;;;;5008284;28;19935;-74
2022/09/28 10:21:25;;;;;;;;;;;9.50;99.90;;;;;;5019834;28;20544;-73
2022/09/28 10:24:03;;;;;;;;;;;9.50;99.90;;;;;;5043326;28;19971;-72
2022/09/28 10:26:39;;;;;;;;;;;9.40;99.90;;;;;;5017411;28;19926;-74
2022/09/28 10:29:18;;;;;;;;;;;9.40;99.90;;;;;;5027081;28;20272;-74
2022/09/28 10:31:51;;;;;;;;;;;9.40;99.90;;;;;;5015572;28;19929;-74
2022/09/28 10:34:30;;;;;;;;;;;9.30;99.90;;;;;;5014564;28;19929;-74
2022/09/28 10:37:09;;;;;;;;;;;9.40;99.90;;;;;;5026224;28;19933;-76
2022/09/28 10:39:58;;;;;;;;;;;9.40;99.90;;;;;;5020451;28;19929;-75
2022/09/28 10:42:35;;;;;;;;;;;9.40;99.90;;;;;;5028919;28;19976;-73
2022/09/28 10:45:19;;;;;;;;;;;9.40;99.90;;;;;;5000593;28;19948;-74
2022/09/28 10:47:51;;;;;;;;;;;9.40;99.90;;;;;;5014123;28;19926;-74
2022/09/28 10:50:21;;;;;;;;;;;9.30;99.90;;;;;;5038469;28;20023;-74
2022/09/28 10:53:24;;;;;;;;;;;9.30;99.90;;;;;;5015375;28;19925;-74
2022/09/28 10:56:09;;;;;;;;;;;9.30;99.90;;;;;;5023794;28;20020;-74
2022/09/28 10:58:41;;;;;;;;;;;9.30;99.90;;;;;;5042169;28;20299;-74
2022/09/28 11:01:24;;;;;;;;;;;9.30;99.90;;;;;;5028967;28;19983;-76
2022/09/28 11:04:01;;;;;;;;;;;9.30;99.90;;;;;;5045285;28;20024;-75
2022/09/28 11:06:37;;;;;;;;;;;9.30;99.90;;;;;;5028067;28;19933;-75
2022/09/28 11:09:25;;;;;;;;;;;9.30;99.90;;;;;;5028606;28;20338;-75
2022/09/28 11:12:05;;;;;;;;;;;9.20;99.90;;;;;;5016631;28;19933;-75
2022/09/28 11:14:39;;;;;;;;;;;9.10;99.90;;;;;;5030941;28;19926;-76
2022/09/28 11:17:32;;;;;;;;;;;9.10;99.90;;;;;;4999295;28;19925;-75
2022/09/28 11:20:00;;;;;;;;;;;9.20;99.90;;;;;;5024642;28;19932;-74
2022/09/28 11:22:32;;;;;;;;;;;9.20;99.90;;;;;;5042691;28;19925;-74
2022/09/28 11:25:18;;;;;;;;;;;9.20;99.90;;;;;;5025298;28;19929;-74
2022/09/28 11:27:49;;;;;;;;;;;9.20;99.90;;;;;;5027564;28;19933;-74
2022/09/28 11:30:31;;;;;;;;;;;9.20;99.90;;;;;;5031514;28;19925;-75
2022/09/28 11:33:26;;;;;;;;;;;9.20;99.90;;;;;;5044447;28;19929;-76
2022/09/28 11:36:31;;;;;;;;;;;9.30;99.90;;;;;;5019967;28;20024;-75
2022/09/28 11:39:10;;;;;;;;;;;9.30;99.90;;;;;;5030338;28;19932;-76
2022/09/28 11:42:15;;;;;;;;;;;9.30;99.90;;;;;;5020503;28;19968;-74
2022/09/28 11:44:47;;;;;;;;;;;9.30;99.90;;;;;;5015077;28;19929;-74
2022/09/28 11:47:29;;;;;;;;;;;9.30;99.90;;;;;;5012282;28;19956;-75
2022/09/28 11:50:21;;;;;;;;;;;9.30;99.90;;;;;;5027565;28;20039;-75
2022/09/28 11:52:56;;;;;;;;;;;9.30;99.90;;;;;;5005625;28;19925;-76
2022/09/28 11:55:30;;;;;;;;;;;9.30;99.90;;;;;;5049884;28;19925;-76
2022/09/28 11:58:10;;;;;;;;;;;9.30;99.90;;;;;;5032604;28;20024;-75
2022/09/28 12:00:48;;;;;;;;;;;9.20;99.90;;;;;;5001473;28;19936;-75
2022/09/28 12:03:17;;;;;;;;;;;9.30;99.90;;;;;;4997254;28;20388;-74
2022/09/28 12:05:54;;;;;;;;;;;9.20;99.90;;;;;;5005604;28;19925;-75
2022/09/28 12:08:30;;;;;;;;;;;9.20;99.90;;;;;;5049886;28;20335;-73
2022/09/28 12:11:19;;;;;;;;;;;9.30;99.90;;;;;;5029263;28;19968;-74
2022/09/28 12:14:20;;;;;;;;;;;9.30;99.90;;;;;;5025385;28;19941;-74
2022/09/28 12:17:09;;;;;;;;;;;9.20;99.90;;;;;;5041319;28;19984;-73
2022/09/28 12:19:49;;;;;;;;;;;9.20;99.90;;;;;;5013086;28;20434;-74
2022/09/28 12:22:24;;;;;;;;;;;9.20;99.90;;;;;;5017909;28;19925;-73
2022/09/28 12:24:56;;;;;;;;;;;9.20;99.90;;;;;;5024777;28;20347;-75
2022/09/28 12:27:31;;;;;;;;;;;9.20;99.90;;;;;;5043881;28;19934;-76
2022/09/28 12:30:11;;;;;;;;;;;9.30;99.90;;;;;;5024313;28;19980;-76
2022/09/28 12:32:47;;;;;;;;;;;9.30;99.90;;;;;;5020125;28;19933;-77
2022/09/28 12:35:32;;;;;;;;;;;9.40;99.90;;;;;;5042324;28;19925;-73
2022/09/28 12:38:22;;;;;;;;;;;9.40;99.90;;;;;;5008381;28;20431;-73
2022/09/28 12:41:00;;;;;;;;;;;9.40;99.90;;;;;;5024307;28;20009;-74
2022/09/28 12:43:39;;;;;;;;;;;9.40;99.90;;;;;;5021469;28;20380;-74
2022/09/28 12:46:17;;;;;;;;;;;9.40;99.90;;;;;;5028678;28;19941;-74
2022/09/28 12:48:52;;;;;;;;;;;9.40;99.90;;;;;;5027224;28;19936;-76
2022/09/28 12:51:26;;;;;;;;;;;9.30;99.90;;;;;;5028051;28;19933;-75
2022/09/28 12:53:58;;;;;;;;;;;9.30;99.90;;;;;;5025558;28;19976;-75
2022/09/28 12:56:33;;;;;;;;;;;9.30;99.90;;;;;;5020397;28;19980;-74
2022/09/28 12:59:13;;;;;;;;;;;9.30;99.90;;;;;;5021444;28;19975;-74
2022/09/28 13:01:52;;;;;;;;;;;9.40;99.90;;;;;;5033894;28;19980;-74
2022/09/28 13:04:33;;;;;;;;;;;9.40;99.90;;;;;;5022772;28;19971;-74
2022/09/28 13:07:08;;;;;;;;;;;9.40;99.90;;;;;;5042918;28;20344;-73
2022/09/28 13:09:48;;;;;;;;;;;9.40;99.90;;;;;;5026982;28;19932;-76
2022/09/28 13:12:24;;;;;;;;;;;9.40;99.90;;;;;;5027634;28;19932;-75
2022/09/28 13:15:04;;;;;;;;;;;9.40;99.90;;;;;;5020382;28;19980;-74
2022/09/28 13:17:39;;;;;;;;;;;9.40;99.90;;;;;;5023084;28;19926;-74
2022/09/28 13:20:30;;;;;;;;;;;9.50;99.90;;;;;;5024518;28;19995;-72
2022/09/28 13:23:09;;;;;;;;;;;9.50;99.90;;;;;;5042531;28;20391;-74
2022/09/28 13:25:48;;;;;;;;;;;9.50;99.90;;;;;;5041027;28;19937;-73
2022/09/28 13:28:21;;;;;;;;;;;9.40;99.90;;;;;;5033141;28;19925;-75
2022/09/28 13:30:54;;;;;;;;;;;9.40;99.90;;;;;;5028292;28;19925;-75
2022/09/28 13:33:30;;;;;;;;;;;9.50;99.90;;;;;;5015055;28;19925;-73
2022/09/28 13:36:21;;;;;;;;;;;9.50;99.90;;;;;;5022357;28;19995;-73
2022/09/28 13:38:54;;;;;;;;;;;9.50;99.90;;;;;;5026578;28;19925;-73
2022/09/28 13:41:36;;;;;;;;;;;9.50;99.90;;;;;;5003614;28;19925;-75
2022/09/28 13:44:11;;;;;;;;;;;9.50;99.90;;;;;;5028540;28;19925;-73
2022/09/28 13:46:46;;;;;;;;;;;9.60;99.90;;;;;;5014517;28;19925;-75
2022/09/28 13:49:28;;;;;;;;;;;9.70;99.90;;;;;;5032705;28;20384;-74
2022/09/28 13:52:03;;;;;;;;;;;9.70;99.90;;;;;;5046769;28;19979;-75
2022/09/28 13:54:35;;;;;;;;;;;9.70;99.90;;;;;;5013171;28;19948;-76
2022/09/28 13:57:10;;;;;;;;;;;9.60;99.90;;;;;;5010320;28;19933;-74
2022/09/28 13:59:56;;;;;;;;;;;9.60;99.90;;;;;;5032308;28;19979;-74
2022/09/28 14:02:42;;;;;;;;;;;9.60;99.90;;;;;;5032492;28;19932;-73
2022/09/28 14:05:20;;;;;;;;;;;9.50;99.90;;;;;;5012671;28;19925;-74
2022/09/28 14:08:16;;;;;;;;;;;9.60;99.90;;;;;;5000048;28;19960;-74
2022/09/28 14:10:49;;;;;;;;;;;9.50;99.90;;;;;;5012575;28;19925;-73
2022/09/28 14:13:39;;;;;;;;;;;9.50;99.90;;;;;;5017910;28;19972;-74
2022/09/28 14:16:19;;;;;;;;;;;9.50;99.90;;;;;;5025991;28;19972;-76
2022/09/28 14:18:57;;;;;;;;;;;9.40;99.90;;;;;;4995070;28;19926;-74
2022/09/28 14:21:36;;;;;;;;;;;9.40;99.90;;;;;;5024937;28;19925;-75
2022/09/28 14:24:13;;;;;;;;;;;9.40;99.90;;;;;;5030804;28;20269;-75
2022/09/28 14:27:03;;;;;;;;;;;9.40;99.90;;;;;;5023931;28;19929;-74
2022/09/28 14:29:35;;;;;;;;;;;9.30;99.90;;;;;;5020262;28;19932;-74
2022/09/28 14:32:06;;;;;;;;;;;9.30;99.90;;;;;;5022643;28;19932;-75
2022/09/28 14:34:46;;;;;;;;;;;9.20;99.90;;;;;;5026204;28;19925;-74
2022/09/28 14:43:23;;;;;;;;;;;9.10;99.90;;;;;;5031941;28;19933;-74
2022/09/28 14:45:51;;;;;;;;;;;9.10;99.90;;;;;;5027478;28;19973;-74
2022/09/28 14:48:42;;;;;;;;;;;9.10;99.90;;;;;;5029127;28;19944;-74
2022/09/28 14:51:25;;;;;;;;;;;9.00;99.90;;;;;;5007540;28;19940;-74
2022/09/28 14:53:59;;;;;;;;;;;8.90;99.90;;;;;;5004363;28;19925;-74
2022/09/28 14:56:40;;;;;;;;;;;8.90;99.90;;;;;;5010099;28;19932;-74
2022/09/28 14:59:11;;;;;;;;;;;8.80;99.90;;;;;;5019365;28;19925;-74
2022/09/28 15:01:49;;;;;;;;;;;8.70;99.90;;;;;;5036767;28;19957;-75
2022/09/28 15:04:24;;;;;;;;;;;8.70;99.90;;;;;;5038781;28;19925;-75
2022/09/28 15:06:59;;;;;;;;;;;8.60;99.90;;;;;;5024141;28;19933;-75
2022/09/28 15:09:36;;;;;;;;;;;8.60;99.90;;;;;;5035633;28;20779;-73
2022/09/28 15:12:11;;;;;;;;;;;8.70;99.90;;;;;;5007538;28;19929;-74
2022/09/28 15:14:50;;;;;;;;;;;8.60;99.90;;;;;;5025720;28;20355;-75
2022/09/28 15:17:23;;;;;;;;;;;8.60;99.90;;;;;;5025592;28;19933;-75
2022/09/28 15:20:10;;;;;;;;;;;8.60;99.90;;;;;;4992017;28;20339;-75
2022/09/28 15:22:45;;;;;;;;;;;8.60;99.90;;;;;;5045664;28;19929;-75
2022/09/28 15:25:13;;;;;;;;;;;8.50;99.90;;;;;;5022296;28;19933;-73
2022/09/28 15:27:40;;;;;;;;;;;8.50;99.90;;;;;;5021434;28;20446;-74
2022/09/28 15:30:30;;;;;;;;;;;8.40;99.90;;;;;;5044803;28;19933;-74
2022/09/28 15:36:02;;;;;;;;;;;8.40;99.90;;;;;;5043920;28;19925;-75
2022/09/28 15:38:34;;;;;;;;;;;8.40;99.90;;;;;;5044755;28;19933;-74
2022/09/28 15:41:06;;;;;;;;;;;8.40;99.90;;;;;;5029510;28;19996;-74
2022/09/28 15:43:40;;;;;;;;;;;8.40;99.90;;;;;;5011467;28;20760;-73
2022/09/28 15:46:16;;;;;;;;;;;8.40;99.90;;;;;;5033367;28;19972;-75
2022/09/28 15:48:50;;;;;;;;;;;8.40;99.90;;;;;;5030845;28;20023;-74